sensor_id;sensor_type;location;lat;lon;timestamp;pressure;altitude;pressure_sealevel;temperature;humidity
21760;BME280;11041;50.854;20.580;2024-01-30T00:00:27;100615.00;;;-2.23;100.00
21760;BME280;11041;50.854;20.580;2024-01-30T00:03:13;100613.53;;;-2.26;100.00
21760;BME280;11041;50.854;20.580;2024-01-30T00:05:40;100614.53;;;-2.27;100.00
21760;BME280;11041;50.854;20.580;2024-01-30T00:08:06;100613.72;;;-2.27;100.00
21760;BME280;11041;50.854;20.580;2024-01-30T00:10:33;100612.22;;;-2.30;100.00
21760;BME280;11041;50.854;20.580;2024-01-30T00:12:59;100605.81;;;-2.29;100.00
21760;BME280;11041;50.854;20.580;2024-01-30T00:15:25;100601.28;;;-2.28;100.00
21760;BME280;11041;50.854;20.580;2024-01-30T00:17:52;100607.50;;;-2.28;100.00
21760;BME280;11041;50.854;20.580;2024-01-30T00:20:18;100605.44;;;-2.26;100.00
21760;BME280;11041;50.854;20.580;2024-01-30T00:22:45;100601.06;;;-2.27;100.00
21760;BME280;11041;50.854;20.580;2024-01-30T00:25:13;100599.59;;;-2.29;100.00
21760;BME280;11041;50.854;20.580;2024-01-30T00:27:39;100597.72;;;-2.29;100.00
21760;BME280;11041;50.854;20.580;2024-01-30T00:30:08;100600.63;;;-2.30;100.00
21760;BME280;11041;50.854;20.580;2024-01-30T00:32:36;100599.59;;;-2.29;100.00
21760;BME280;11041;50.854;20.580;2024-01-30T00:35:05;100593.38;;;-2.30;100.00
21760;BME280;11041;50.854;20.580;2024-01-30T00:37:32;100597.56;;;-2.27;100.00
21760;BME280;11041;50.854;20.580;2024-01-30T00:40:04;100591.34;;;-2.28;100.00
21760;BME280;11041;50.854;20.580;2024-01-30T00:42:34;100597.94;;;-2.30;100.00
21760;BME280;11041;50.854;20.580;2024-01-30T00:45:04;100595.59;;;-2.33;100.00
21760;BME280;11041;50.854;20.580;2024-01-30T00:47:33;100593.09;;;-2.35;100.00
21760;BME280;11041;50.854;20.580;2024-01-30T00:50:01;100597.66;;;-2.36;100.00
21760;BME280;11041;50.854;20.580;2024-01-30T00:52:29;100596.63;;;-2.34;100.00
21760;BME280;11041;50.854;20.580;2024-01-30T00:54:57;100590.41;;;-2.35;100.00
21760;BME280;11041;50.854;20.580;2024-01-30T00:57:24;100575.09;;;-2.34;100.00
21760;BME280;11041;50.854;20.580;2024-01-30T00:59:51;100586.88;;;-2.36;100.00
21760;BME280;11041;50.854;20.580;2024-01-30T01:02:18;100586.03;;;-2.36;100.00
21760;BME280;11041;50.854;20.580;2024-01-30T01:04:45;100589.59;;;-2.36;100.00
21760;BME280;11041;50.854;20.580;2024-01-30T01:07:12;100588.72;;;-2.36;100.00
21760;BME280;11041;50.854;20.580;2024-01-30T01:09:39;100586.22;;;-2.38;100.00
21760;BME280;11041;50.854;20.580;2024-01-30T01:12:06;100583.16;;;-2.34;100.00
21760;BME280;11041;50.854;20.580;2024-01-30T01:14:33;100579.81;;;-2.37;100.00
21760;BME280;11041;50.854;20.580;2024-01-30T01:16:59;100575.25;;;-2.36;100.00
21760;BME280;11041;50.854;20.580;2024-01-30T01:19:26;100578.81;;;-2.36;100.00
21760;BME280;11041;50.854;20.580;2024-01-30T01:21:54;100574.44;;;-2.37;100.00
21760;BME280;11041;50.854;20.580;2024-01-30T01:24:20;100569.69;;;-2.34;100.00
21760;BME280;11041;50.854;20.580;2024-01-30T01:26:47;100575.91;;;-2.34;100.00
21760;BME280;11041;50.854;20.580;2024-01-30T01:29:14;100575.09;;;-2.34;100.00
21760;BME280;11041;50.854;20.580;2024-01-30T01:31:42;100577.78;;;-2.34;100.00
21760;BME280;11041;50.854;20.580;2024-01-30T01:34:18;100572.38;;;-2.34;100.00
21760;BME280;11041;50.854;20.580;2024-01-30T01:36:44;100574.44;;;-2.37;100.00
21760;BME280;11041;50.854;20.580;2024-01-30T01:39:11;100568.03;;;-2.36;100.00
21760;BME280;11041;50.854;20.580;2024-01-30T01:41:37;100565.34;;;-2.36;100.00
21760;BME280;11041;50.854;20.580;2024-01-30T01:44:04;100571.75;;;-2.37;100.00
21760;BME280;11041;50.854;20.580;2024-01-30T01:46:34;100559.47;;;-2.39;100.00
21760;BME280;11041;50.854;20.580;2024-01-30T01:49:04;100553.94;;;-2.38;100.00
21760;BME280;11041;50.854;20.580;2024-01-30T01:51:35;100558.09;;;-2.35;100.00
21760;BME280;11041;50.854;20.580;2024-01-30T01:54:04;100554.56;;;-2.36;100.00
21760;BME280;11041;50.854;20.580;2024-01-30T01:56:34;100555.19;;;-2.33;100.00
21760;BME280;11041;50.854;20.580;2024-01-30T01:59:06;100553.16;;;-2.31;100.00
21760;BME280;11041;50.854;20.580;2024-01-30T02:01:39;100550.13;;;-2.28;100.00
21760;BME280;11041;50.854;20.580;2024-01-30T02:04:08;100557.81;;;-2.25;100.00
21760;BME280;11041;50.854;20.580;2024-01-30T02:06:35;100554.56;;;-2.21;100.00
21760;BME280;11041;50.854;20.580;2024-01-30T02:09:01;100545.44;;;-2.20;100.00
21760;BME280;11041;50.854;20.580;2024-01-30T02:11:28;100542.38;;;-2.17;100.00
21760;BME280;11041;50.854;20.580;2024-01-30T02:13:55;100544.72;;;-2.13;100.00
21760;BME280;11041;50.854;20.580;2024-01-30T02:16:21;100547.56;;;-2.15;100.00
21760;BME280;11041;50.854;20.580;2024-01-30T02:18:48;100545.53;;;-2.13;100.00
21760;BME280;11041;50.854;20.580;2024-01-30T02:21:16;100547.19;;;-2.12;100.00
21760;BME280;11041;50.854;20.580;2024-01-30T02:23:49;100540.81;;;-2.11;100.00
21760;BME280;11041;50.854;20.580;2024-01-30T02:26:19;100543.28;;;-2.09;100.00
21760;BME280;11041;50.854;20.580;2024-01-30T02:28:46;100540.81;;;-2.11;100.00
21760;BME280;11041;50.854;20.580;2024-01-30T02:31:16;100534.59;;;-2.11;100.00
21760;BME280;11041;50.854;20.580;2024-01-30T02:33:48;100538.94;;;-2.10;100.00
21760;BME280;11041;50.854;20.580;2024-01-30T02:36:19;100534.59;;;-2.11;100.00
21760;BME280;11041;50.854;20.580;2024-01-30T02:38:52;100537.28;;;-2.11;100.00
21760;BME280;11041;50.854;20.580;2024-01-30T02:41:19;100539.13;;;-2.12;100.00
21760;BME280;11041;50.854;20.580;2024-01-30T02:43:45;100540.16;;;-2.13;100.00
21760;BME280;11041;50.854;20.580;2024-01-30T02:46:18;100533.94;;;-2.13;100.00
21760;BME280;11041;50.854;20.580;2024-01-30T02:48:44;100542.38;;;-2.17;100.00
21760;BME280;11041;50.854;20.580;2024-01-30T02:51:17;100539.88;;;-2.18;100.00
21760;BME280;11041;50.854;20.580;2024-01-30T02:53:45;100543.78;;;-2.21;100.00
21760;BME280;11041;50.854;20.580;2024-01-30T02:56:12;100536.72;;;-2.22;100.00
21760;BME280;11041;50.854;20.580;2024-01-30T02:58:41;100530.50;;;-2.22;100.00
21760;BME280;11041;50.854;20.580;2024-01-30T03:01:09;100530.50;;;-2.22;100.00
21760;BME280;11041;50.854;20.580;2024-01-30T03:03:39;100531.53;;;-2.23;100.00
21760;BME280;11041;50.854;20.580;2024-01-30T03:06:09;100529.84;;;-2.24;100.00
21760;BME280;11041;50.854;20.580;2024-01-30T03:08:40;100537.09;;;-2.25;100.00
21760;BME280;11041;50.854;20.580;2024-01-30T03:11:08;100521.13;;;-2.26;100.00
21760;BME280;11041;50.854;20.580;2024-01-30T03:13:37;100514.25;;;-2.29;100.00
21760;BME280;11041;50.854;20.580;2024-01-30T03:16:08;100516.94;;;-2.29;100.00
21760;BME280;11041;50.854;20.580;2024-01-30T03:18:40;100515.13;;;-2.28;100.00
21760;BME280;11041;50.854;20.580;2024-01-30T03:21:10;100517.97;;;-2.30;100.00
21760;BME280;11041;50.854;20.580;2024-01-30T03:23:42;100512.41;;;-2.28;100.00
21760;BME280;11041;50.854;20.580;2024-01-30T03:26:11;100513.25;;;-2.28;100.00
21760;BME280;11041;50.854;20.580;2024-01-30T03:28:39;100501.44;;;-2.27;100.00
21760;BME280;11041;50.854;20.580;2024-01-30T03:31:12;100506.66;;;-2.25;100.00
21760;BME280;11041;50.854;20.580;2024-01-30T03:33:40;100502.91;;;-2.24;100.00
21760;BME280;11041;50.854;20.580;2024-01-30T03:36:11;100501.06;;;-2.24;100.00
21760;BME280;11041;50.854;20.580;2024-01-30T03:38:42;100504.78;;;-2.25;100.00
21760;BME280;11041;50.854;20.580;2024-01-30T03:41:10;100497.91;;;-2.27;100.00
21760;BME280;11041;50.854;20.580;2024-01-30T03:43:40;100503.47;;;-2.29;100.00
21760;BME280;11041;50.854;20.580;2024-01-30T03:46:08;100498.31;;;-2.30;100.00
21760;BME280;11041;50.854;20.580;2024-01-30T03:48:35;100504.34;;;-2.28;100.00
21760;BME280;11041;50.854;20.580;2024-01-30T03:51:04;100496.44;;;-2.30;100.00
21760;BME280;11041;50.854;20.580;2024-01-30T03:53:31;100501.00;;;-2.30;100.00
21760;BME280;11041;50.854;20.580;2024-01-30T03:55:59;100494.56;;;-2.29;100.00
21760;BME280;11041;50.854;20.580;2024-01-30T03:58:28;100501.81;;;-2.30;100.00
21760;BME280;11041;50.854;20.580;2024-01-30T04:00:58;100501.66;;;-2.28;100.00
21760;BME280;11041;50.854;20.580;2024-01-30T04:03:27;100503.97;;;-2.25;100.00
21760;BME280;11041;50.854;20.580;2024-01-30T04:05:59;100501.25;;;-2.25;100.00
21760;BME280;11041;50.854;20.580;2024-01-30T04:08:27;100508.69;;;-2.27;100.00
21760;BME280;11041;50.854;20.580;2024-01-30T04:10:59;100503.97;;;-2.25;100.00
21760;BME280;11041;50.854;20.580;2024-01-30T04:13:34;100513.03;;;-2.26;100.00
21760;BME280;11041;50.854;20.580;2024-01-30T04:16:05;100508.03;;;-2.29;100.00
21760;BME280;11041;50.854;20.580;2024-01-30T04:18:36;100506.75;;;-2.33;100.00
21760;BME280;11041;50.854;20.580;2024-01-30T04:21:03;100516.22;;;-2.38;100.00
21760;BME280;11041;50.854;20.580;2024-01-30T04:23:30;100518.66;;;-2.43;100.00
21760;BME280;11041;50.854;20.580;2024-01-30T04:26:01;100506.97;;;-2.50;100.00
21760;BME280;11041;50.854;20.580;2024-01-30T04:28:27;100511.88;;;-2.53;100.00
21760;BME280;11041;50.854;20.580;2024-01-30T04:30:58;100513.09;;;-2.56;100.00
21760;BME280;11041;50.854;20.580;2024-01-30T04:33:24;100510.78;;;-2.59;100.00
21760;BME280;11041;50.854;20.580;2024-01-30T04:35:54;100515.50;;;-2.61;100.00
21760;BME280;11041;50.854;20.580;2024-01-30T04:38:24;100507.16;;;-2.66;100.00
21760;BME280;11041;50.854;20.580;2024-01-30T04:40:54;100517.44;;;-2.70;100.00
21760;BME280;11041;50.854;20.580;2024-01-30T04:43:23;100516.97;;;-2.73;100.00
21760;BME280;11041;50.854;20.580;2024-01-30T04:45:50;100518.00;;;-2.74;100.00
21760;BME280;11041;50.854;20.580;2024-01-30T04:48:21;100517.53;;;-2.78;100.00
21760;BME280;11041;50.854;20.580;2024-01-30T04:50:50;100524.94;;;-2.80;100.00
21760;BME280;11041;50.854;20.580;2024-01-30T04:53:17;100521.44;;;-2.81;100.00
21760;BME280;11041;50.854;20.580;2024-01-30T04:55:47;100512.72;;;-2.83;100.00
21760;BME280;11041;50.854;20.580;2024-01-30T04:58:15;100518.25;;;-2.84;100.00
21760;BME280;11041;50.854;20.580;2024-01-30T05:00:43;100518.47;;;-2.86;100.00
21760;BME280;11041;50.854;20.580;2024-01-30T05:03:12;100522.97;;;-2.86;100.00
21760;BME280;11041;50.854;20.580;2024-01-30T05:05:39;100527.75;;;-2.88;100.00
21760;BME280;11041;50.854;20.580;2024-01-30T05:08:06;100527.91;;;-2.90;100.00
21760;BME280;11041;50.854;20.580;2024-01-30T05:10:36;100530.59;;;-2.90;100.00
21760;BME280;11041;50.854;20.580;2024-01-30T05:13:06;100534.13;;;-2.89;100.00
21760;BME280;11041;50.854;20.580;2024-01-30T05:15:35;100538.69;;;-2.90;100.00
21760;BME280;11041;50.854;20.580;2024-01-30T05:18:03;100542.19;;;-2.89;100.00
21760;BME280;11041;50.854;20.580;2024-01-30T05:20:32;100546.09;;;-2.92;100.00
21760;BME280;11041;50.854;20.580;2024-01-30T05:23:00;100531.97;;;-2.94;100.00
21760;BME280;11041;50.854;20.580;2024-01-30T05:25:29;100537.56;;;-2.95;100.00
21760;BME280;11041;50.854;20.580;2024-01-30T05:28:00;100538.75;;;-2.98;100.00
21760;BME280;11041;50.854;20.580;2024-01-30T05:30:29;100532.72;;;-3.00;100.00
21760;BME280;11041;50.854;20.580;2024-01-30T05:32:55;100538.28;;;-3.02;100.00
21760;BME280;11041;50.854;20.580;2024-01-30T05:35:24;100534.75;;;-3.02;100.00
21760;BME280;11041;50.854;20.580;2024-01-30T05:37:53;100525.22;;;-3.05;100.00
21760;BME280;11041;50.854;20.580;2024-01-30T05:40:27;100529.75;;;-3.05;100.00
21760;BME280;11041;50.854;20.580;2024-01-30T05:42:59;100528.91;;;-3.06;100.00
21760;BME280;11041;50.854;20.580;2024-01-30T05:45:29;100536.50;;;-3.09;100.00
21760;BME280;11041;50.854;20.580;2024-01-30T05:47:58;100532.34;;;-3.12;100.00
21760;BME280;11041;50.854;20.580;2024-01-30T05:50:29;100525.63;;;-3.16;100.00
21760;BME280;11041;50.854;20.580;2024-01-30T05:53:00;100529.53;;;-3.18;100.00
21760;BME280;11041;50.854;20.580;2024-01-30T05:55:30;100531.56;;;-3.21;100.00
21760;BME280;11041;50.854;20.580;2024-01-30T05:57:59;100526.38;;;-3.22;100.00
21760;BME280;11041;50.854;20.580;2024-01-30T06:00:33;100528.41;;;-3.24;100.00
21760;BME280;11041;50.854;20.580;2024-01-30T06:03:02;100528.59;;;-3.26;100.00
21760;BME280;11041;50.854;20.580;2024-01-30T06:05:29;100532.09;;;-3.25;100.00
21760;BME280;11041;50.854;20.580;2024-01-30T06:07:57;100539.16;;;-3.24;100.00
21760;BME280;11041;50.854;20.580;2024-01-30T06:10:24;100539.81;;;-3.22;100.00
21760;BME280;11041;50.854;20.580;2024-01-30T06:12:50;100535.28;;;-3.22;100.00
21760;BME280;11041;50.854;20.580;2024-01-30T06:15:17;100542.16;;;-3.19;100.00
21760;BME280;11041;50.854;20.580;2024-01-30T06:17:45;100541.13;;;-3.18;100.00
21760;BME280;11041;50.854;20.580;2024-01-30T06:20:12;100545.50;;;-3.17;100.00
21760;BME280;11041;50.854;20.580;2024-01-30T06:22:40;100548.63;;;-3.13;100.00
21760;BME280;11041;50.854;20.580;2024-01-30T06:25:08;100542.59;;;-3.15;100.00
21760;BME280;11041;50.854;20.580;2024-01-30T06:27:38;100541.22;;;-3.11;100.00
21760;BME280;11041;50.854;20.580;2024-01-30T06:30:06;100546.22;;;-3.08;100.00
21760;BME280;11041;50.854;20.580;2024-01-30T06:32:32;100542.72;;;-3.09;100.00
21760;BME280;11041;50.854;20.580;2024-01-30T06:35:01;100542.53;;;-3.07;100.00
21760;BME280;11041;50.854;20.580;2024-01-30T06:37:28;100540.50;;;-3.05;100.00
21760;BME280;11041;50.854;20.580;2024-01-30T06:39:55;100539.97;;;-3.01;100.00
21760;BME280;11041;50.854;20.580;2024-01-30T06:42:21;100530.97;;;-2.93;100.00
21760;BME280;11041;50.854;20.580;2024-01-30T06:44:47;100535.44;;;-2.85;100.00
21760;BME280;11041;50.854;20.580;2024-01-30T06:47:14;100536.00;;;-2.75;100.00
21760;BME280;11041;50.854;20.580;2024-01-30T06:49:40;100535.72;;;-2.65;100.00
21760;BME280;11041;50.854;20.580;2024-01-30T06:52:09;100546.41;;;-2.57;100.00
21760;BME280;11041;50.854;20.580;2024-01-30T06:54:38;100540.28;;;-2.51;100.00
21760;BME280;11041;50.854;20.580;2024-01-30T06:57:06;100538.31;;;-2.42;100.00
21760;BME280;11041;50.854;20.580;2024-01-30T06:59:39;100541.13;;;-2.36;100.00
21760;BME280;11041;50.854;20.580;2024-01-30T07:02:10;100525.03;;;-2.29;100.00
21760;BME280;11041;50.854;20.580;2024-01-30T07:04:37;100524.28;;;-2.23;100.00
21760;BME280;11041;50.854;20.580;2024-01-30T07:07:06;100516.47;;;-2.18;100.00
21760;BME280;11041;50.854;20.580;2024-01-30T07:09:39;100522.59;;;-2.09;100.00
21760;BME280;11041;50.854;20.580;2024-01-30T07:12:07;100526.38;;;-2.03;100.00
21760;BME280;11041;50.854;20.580;2024-01-30T07:14:34;100537.25;;;-1.97;100.00
21760;BME280;11041;50.854;20.580;2024-01-30T07:17:00;100532.94;;;-1.91;100.00
21760;BME280;11041;50.854;20.580;2024-01-30T07:19:28;100535.06;;;-1.86;100.00
21760;BME280;11041;50.854;20.580;2024-01-30T07:21:56;100533.69;;;-1.82;100.00
21760;BME280;11041;50.854;20.580;2024-01-30T07:24:24;100536.81;;;-1.79;100.00
21760;BME280;11041;50.854;20.580;2024-01-30T07:26:53;100541.44;;;-1.73;100.00
21760;BME280;11041;50.854;20.580;2024-01-30T07:29:21;100541.72;;;-1.67;100.00
21760;BME280;11041;50.854;20.580;2024-01-30T07:31:49;100551.72;;;-1.61;100.00
21760;BME280;11041;50.854;20.580;2024-01-30T07:34:16;100554.69;;;-1.56;100.00
21760;BME280;11041;50.854;20.580;2024-01-30T07:36:43;100554.31;;;-1.53;100.00
21760;BME280;11041;50.854;20.580;2024-01-30T07:39:12;100542.94;;;-1.48;100.00
21760;BME280;11041;50.854;20.580;2024-01-30T07:41:41;100544.66;;;-1.41;100.00
21760;BME280;11041;50.854;20.580;2024-01-30T07:44:10;100542.22;;;-1.36;100.00
21760;BME280;11041;50.854;20.580;2024-01-30T07:46:36;100530.84;;;-1.31;100.00
21760;BME280;11041;50.854;20.580;2024-01-30T07:49:10;100534.44;;;-1.24;100.00
21760;BME280;11041;50.854;20.580;2024-01-30T07:51:39;100534.69;;;-1.19;100.00
21760;BME280;11041;50.854;20.580;2024-01-30T07:54:09;100546.56;;;-1.13;100.00
21760;BME280;11041;50.854;20.580;2024-01-30T07:56:37;100540.41;;;-1.07;100.00
21760;BME280;11041;50.854;20.580;2024-01-30T07:59:03;100537.94;;;-1.02;100.00
21760;BME280;11041;50.854;20.580;2024-01-30T08:01:30;100533.63;;;-0.96;100.00
21760;BME280;11041;50.854;20.580;2024-01-30T08:04:01;100537.59;;;-0.92;100.00
21760;BME280;11041;50.854;20.580;2024-01-30T08:06:29;100534.97;;;-0.86;100.00
21760;BME280;11041;50.854;20.580;2024-01-30T08:08:56;100544.97;;;-0.79;100.00
21760;BME280;11041;50.854;20.580;2024-01-30T08:11:28;100548.53;;;-0.72;100.00
21760;BME280;11041;50.854;20.580;2024-01-30T08:13:59;100550.28;;;-0.65;100.00
21760;BME280;11041;50.854;20.580;2024-01-30T08:16:29;100542.41;;;-0.59;100.00
21760;BME280;11041;50.854;20.580;2024-01-30T08:18:57;100550.56;;;-0.53;100.00
21760;BME280;11041;50.854;20.580;2024-01-30T08:21:28;100547.88;;;-0.46;100.00
21760;BME280;11041;50.854;20.580;2024-01-30T08:23:55;100551.25;;;-0.37;100.00
21760;BME280;11041;50.854;20.580;2024-01-30T08:26:21;100562.09;;;-0.31;100.00
21760;BME280;11041;50.854;20.580;2024-01-30T08:28:53;100555.88;;;-0.25;100.00
21760;BME280;11041;50.854;20.580;2024-01-30T08:31:23;100555.94;;;-0.18;100.00
21760;BME280;11041;50.854;20.580;2024-01-30T08:33:50;100551.38;;;-0.11;100.00
21760;BME280;11041;50.854;20.580;2024-01-30T08:36:21;100552.44;;;-0.05;100.00
21760;BME280;11041;50.854;20.580;2024-01-30T08:38:55;100552.28;;;0.03;100.00
21760;BME280;11041;50.854;20.580;2024-01-30T08:41:21;100555.03;;;0.10;100.00
21760;BME280;11041;50.854;20.580;2024-01-30T08:43:51;100545.91;;;0.17;100.00
21760;BME280;11041;50.854;20.580;2024-01-30T08:46:21;100550.28;;;0.25;100.00
21760;BME280;11041;50.854;20.580;2024-01-30T08:48:50;100548.63;;;0.31;100.00
21760;BME280;11041;50.854;20.580;2024-01-30T08:51:17;100543.25;;;0.37;100.00
21760;BME280;11041;50.854;20.580;2024-01-30T08:53:46;100534.09;;;0.45;100.00
21760;BME280;11041;50.854;20.580;2024-01-30T08:56:12;100544.09;;;0.51;100.00
21760;BME280;11041;50.854;20.580;2024-01-30T08:58:47;100539.53;;;0.58;99.78
21760;BME280;11041;50.854;20.580;2024-01-30T09:01:14;100542.25;;;0.65;99.15
21760;BME280;11041;50.854;20.580;2024-01-30T09:03:41;100539.75;;;0.70;98.67
21760;BME280;11041;50.854;20.580;2024-01-30T09:06:10;100541.44;;;0.78;98.13
21760;BME280;11041;50.854;20.580;2024-01-30T09:08:42;100523.53;;;0.83;98.31
21760;BME280;11041;50.854;20.580;2024-01-30T09:11:14;100527.88;;;0.91;98.36
21760;BME280;11041;50.854;20.580;2024-01-30T09:13:41;100527.91;;;0.98;98.17
21760;BME280;11041;50.854;20.580;2024-01-30T09:16:08;100525.38;;;1.03;97.36
21760;BME280;11041;50.854;20.580;2024-01-30T09:18:37;100523.50;;;1.10;97.55
21760;BME280;11041;50.854;20.580;2024-01-30T09:21:05;100511.84;;;1.16;97.28
21760;BME280;11041;50.854;20.580;2024-01-30T09:23:36;100514.56;;;1.23;97.20
21760;BME280;11041;50.854;20.580;2024-01-30T09:26:04;100512.06;;;1.28;96.90
21760;BME280;11041;50.854;20.580;2024-01-30T09:28:31;100512.44;;;1.32;94.15
21760;BME280;11041;50.854;20.580;2024-01-30T09:30:59;100513.25;;;1.39;90.59
21760;BME280;11041;50.854;20.580;2024-01-30T09:33:29;100510.13;;;1.48;92.10
21760;BME280;11041;50.854;20.580;2024-01-30T09:36:02;100516.16;;;1.57;91.79
21760;BME280;11041;50.854;20.580;2024-01-30T09:38:31;100514.25;;;1.64;91.24
21760;BME280;11041;50.854;20.580;2024-01-30T09:41:09;100511.94;;;1.68;88.40
21760;BME280;11041;50.854;20.580;2024-01-30T09:43:38;100509.00;;;1.76;89.26
21760;BME280;11041;50.854;20.580;2024-01-30T09:46:13;100498.97;;;1.83;89.79
21760;BME280;11041;50.854;20.580;2024-01-30T09:48:46;100503.13;;;1.86;86.85
21760;BME280;11041;50.854;20.580;2024-01-30T09:51:17;100496.81;;;1.92;86.92
21760;BME280;11041;50.854;20.580;2024-01-30T09:53:45;100505.38;;;1.96;84.99
21760;BME280;11041;50.854;20.580;2024-01-30T09:56:16;100496.81;;;1.99;84.10
21760;BME280;11041;50.854;20.580;2024-01-30T09:58:46;100496.78;;;2.05;84.62
21760;BME280;11041;50.854;20.580;2024-01-30T10:01:17;100495.91;;;2.11;83.93
21760;BME280;11041;50.854;20.580;2024-01-30T10:03:50;100495.47;;;2.15;84.08
21760;BME280;11041;50.854;20.580;2024-01-30T10:06:22;100485.44;;;2.22;85.11
21760;BME280;11041;50.854;20.580;2024-01-30T10:08:51;100471.22;;;2.26;84.08
21760;BME280;11041;50.854;20.580;2024-01-30T10:11:17;100482.63;;;2.35;85.14
21760;BME280;11041;50.854;20.580;2024-01-30T10:13:47;100479.88;;;2.42;86.10
21760;BME280;11041;50.854;20.580;2024-01-30T10:16:20;100479.81;;;2.48;85.79
21760;BME280;11041;50.854;20.580;2024-01-30T10:18:50;100473.50;;;2.54;85.93
21760;BME280;11041;50.854;20.580;2024-01-30T10:21:20;100469.09;;;2.60;85.13
21760;BME280;11041;50.854;20.580;2024-01-30T10:23:50;100457.50;;;2.71;84.51
21760;BME280;11041;50.854;20.580;2024-01-30T10:26:20;100464.94;;;2.83;82.26
21760;BME280;11041;50.854;20.580;2024-01-30T10:28:48;100459.81;;;2.93;83.09
21760;BME280;11041;50.854;20.580;2024-01-30T10:31:18;100449.72;;;3.00;83.25
21760;BME280;11041;50.854;20.580;2024-01-30T10:33:48;100446.75;;;3.08;83.17
21760;BME280;11041;50.854;20.580;2024-01-30T10:36:14;100438.97;;;3.12;83.03
21760;BME280;11041;50.854;20.580;2024-01-30T10:38:43;100441.84;;;3.17;78.06
21760;BME280;11041;50.854;20.580;2024-01-30T10:41:15;100443.81;;;3.28;77.38
21760;BME280;11041;50.854;20.580;2024-01-30T10:44:02;100441.78;;;3.42;77.00
21760;BME280;11041;50.854;20.580;2024-01-30T10:46:32;100440.44;;;3.51;75.68
21760;BME280;11041;50.854;20.580;2024-01-30T10:49:02;100428.16;;;3.60;76.63
21760;BME280;11041;50.854;20.580;2024-01-30T10:51:32;100433.91;;;3.71;75.65
21760;BME280;11041;50.854;20.580;2024-01-30T10:54:00;100426.25;;;3.79;73.69
21760;BME280;11041;50.854;20.580;2024-01-30T10:56:31;100423.59;;;3.91;73.79
21760;BME280;11041;50.854;20.580;2024-01-30T10:59:02;100425.53;;;4.02;74.28
21760;BME280;11041;50.854;20.580;2024-01-30T11:01:30;100419.16;;;4.09;72.78
21760;BME280;11041;50.854;20.580;2024-01-30T11:03:57;100421.09;;;4.20;73.67
21760;BME280;11041;50.854;20.580;2024-01-30T11:06:29;100419.09;;;4.27;73.68
21760;BME280;11041;50.854;20.580;2024-01-30T11:09:10;100417.69;;;4.36;73.30
21760;BME280;11041;50.854;20.580;2024-01-30T11:11:58;100411.09;;;4.44;73.98
21760;BME280;11041;50.854;20.580;2024-01-30T11:14:32;100416.44;;;4.51;73.29
21760;BME280;11041;50.854;20.580;2024-01-30T11:17:00;100409.47;;;4.55;72.13
21760;BME280;11041;50.854;20.580;2024-01-30T11:19:32;100404.13;;;4.60;72.59
21760;BME280;11041;50.854;20.580;2024-01-30T11:22:00;100402.34;;;4.65;73.48
21760;BME280;11041;50.854;20.580;2024-01-30T11:24:27;100403.56;;;4.69;73.47
21760;BME280;11041;50.854;20.580;2024-01-30T11:27:00;100402.84;;;4.74;73.00
21760;BME280;11041;50.854;20.580;2024-01-30T11:29:28;100395.50;;;4.75;73.24
21760;BME280;11041;50.854;20.580;2024-01-30T11:31:57;100396.31;;;4.75;73.01
21760;BME280;11041;50.854;20.580;2024-01-30T11:34:27;100392.19;;;4.73;72.23
21760;BME280;11041;50.854;20.580;2024-01-30T11:37:03;100390.53;;;4.72;71.75
21760;BME280;11041;50.854;20.580;2024-01-30T11:39:36;100389.13;;;4.69;71.39
21760;BME280;11041;50.854;20.580;2024-01-30T11:42:06;100387.09;;;4.64;69.65
21760;BME280;11041;50.854;20.580;2024-01-30T11:44:35;100382.34;;;4.60;69.66
21760;BME280;11041;50.854;20.580;2024-01-30T11:47:05;100386.00;;;4.54;68.78
21760;BME280;11041;50.854;20.580;2024-01-30T11:49:36;100386.84;;;4.54;69.57
21760;BME280;11041;50.854;20.580;2024-01-30T11:52:06;100388.13;;;4.52;69.55
21760;BME280;11041;50.854;20.580;2024-01-30T11:54:34;100382.94;;;4.50;68.01
21760;BME280;11041;50.854;20.580;2024-01-30T11:57:01;100382.94;;;4.50;68.45
21760;BME280;11041;50.854;20.580;2024-01-30T11:59:30;100381.16;;;4.44;67.86
21760;BME280;11041;50.854;20.580;2024-01-30T12:01:56;100388.84;;;4.47;69.46
21760;BME280;11041;50.854;20.580;2024-01-30T12:04:25;100387.19;;;4.46;69.43
21760;BME280;11041;50.854;20.580;2024-01-30T12:06:54;100387.28;;;4.39;67.76
21760;BME280;11041;50.854;20.580;2024-01-30T12:09:21;100383.03;;;4.43;67.90
21760;BME280;11041;50.854;20.580;2024-01-30T12:11:49;100382.44;;;4.41;67.19
21760;BME280;11041;50.854;20.580;2024-01-30T12:14:17;100376.53;;;4.44;66.76
21760;BME280;11041;50.854;20.580;2024-01-30T12:16:49;100376.19;;;4.53;67.94
21760;BME280;11041;50.854;20.580;2024-01-30T12:19:25;100371.56;;;4.53;66.66
21760;BME280;11041;50.854;20.580;2024-01-30T12:21:58;100361.63;;;4.59;67.04
21760;BME280;11041;50.854;20.580;2024-01-30T12:24:29;100363.63;;;4.63;67.81
21760;BME280;11041;50.854;20.580;2024-01-30T12:27:03;100360.44;;;4.66;67.98
21760;BME280;11041;50.854;20.580;2024-01-30T12:29:32;100353.94;;;4.67;67.25
21760;BME280;11041;50.854;20.580;2024-01-30T12:32:01;100360.81;;;4.70;67.40
21760;BME280;11041;50.854;20.580;2024-01-30T12:34:28;100353.72;;;4.69;64.99
21760;BME280;11041;50.854;20.580;2024-01-30T12:36:58;100358.78;;;4.77;66.49
21760;BME280;11041;50.854;20.580;2024-01-30T12:39:27;100353.94;;;4.79;65.29
21760;BME280;11041;50.854;20.580;2024-01-30T12:41:53;100353.47;;;4.82;66.26
21760;BME280;11041;50.854;20.580;2024-01-30T12:44:23;100349.09;;;4.81;64.44